WXM80 ListenWXM80 Stop

You find our weather info also at:

UK Metoffice

WeatherCloud

Weather Underground

Northeastern Weather Network

AWEKAS

Citizen Weather Observer Program (CWOP)

HAMweather, WeatherForYou, PWS Weather


Weather Underground History page Text

Daily Summary for March 5, 2017 Units:  Both    English   Metric
« Previous Day
Next Day »
Daily Weekly Monthly Yearly Custom
  High: Low: Average:
Temperature: 35.1 °F /  1.7 °C 15.2 °F /  -9.3 °C 25.3 °F /  -3.7 °C
Dew Point: 8.3 °F /  -13.2 °C -2.3 °F /  -19.1 °C 2.1 °F /  -16.6 °C
Humidity: 49 % 24 % 37 %
Wind Speed: 10.9 mph /  17.5 km/h - 6.1 mph /  9.8 km/h
Wind Gust: 23.0 mph /  37 km/h - -
Wind:- - WSW
Pressure: 30.62 in /  1036.8 hPa 30.47 in /  1031.7 hPa -
Precipitation: 0.00 in /  0 mm    
Historical Graphs
 
 
Tabular Data for March 5, 2017
Time Temperature Dew Point Pressure Wind Wind Speed Wind Gust Humidity Rainfall Rate (Hourly)
00:02 18.1 °F /  -7.7 °C 0.3 °F /  -17.6 °C 30.56 in /  1034.8 hPa NNW 6.4 mph /  10.3 km/h 16.1 mph /  25.9 km/h 45 % 0.00 in /  0 mm
00:07 18.0 °F /  -7.8 °C -0.3 °F /  -17.9 °C 30.56 in /  1034.8 hPa North 6.3 mph /  10.1 km/h 18.4 mph /  29.6 km/h 44 % 0.00 in /  0 mm
00:12 17.9 °F /  -7.8 °C 0.1 °F /  -17.7 °C 30.56 in /  1034.8 hPa NNW 9.4 mph /  15.1 km/h 17.3 mph /  27.8 km/h 45 % 0.00 in /  0 mm
00:17 17.8 °F /  -7.9 °C 0.0 °F /  -17.8 °C 30.56 in /  1034.8 hPa NW 7.4 mph /  11.9 km/h 11.5 mph /  18.5 km/h 45 % 0.00 in /  0 mm
00:18 17.9 °F /  -7.8 °C 0.6 °F /  -17.4 °C 30.56 in /  1034.8 hPa NW 7.5 mph /  12.1 km/h 11.5 mph /  18.5 km/h 46 % 0.00 in /  0 mm
00:23 17.9 °F /  -7.8 °C 0.6 °F /  -17.4 °C 30.56 in /  1034.8 hPa NW 10.9 mph /  17.5 km/h 19.0 mph /  30.6 km/h 46 % 0.00 in /  0 mm
00:28 17.8 °F /  -7.9 °C -0.5 °F /  -18.1 °C 30.55 in /  1034.4 hPa NW 9.9 mph /  15.9 km/h 23.0 mph /  37 km/h 44 % 0.00 in /  0 mm
00:33 17.7 °F /  -7.9 °C -0.1 °F /  -17.8 °C 30.55 in /  1034.4 hPa NNW 9.0 mph /  14.5 km/h 16.0 mph /  25.7 km/h 45 % 0.00 in /  0 mm
00:38 17.7 °F /  -7.9 °C -0.1 °F /  -17.8 °C 30.56 in /  1034.8 hPa North 10.0 mph /  16.1 km/h 18.0 mph /  29 km/h 45 % 0.00 in /  0 mm
00:43 17.7 °F /  -7.9 °C 1.3 °F /  -17.1 °C 30.56 in /  1034.8 hPa NNW 7.0 mph /  11.3 km/h 14.0 mph /  22.5 km/h 48 % 0.00 in /  0 mm
00:48 17.6 °F /  -8 °C 0.3 °F /  -17.6 °C 30.56 in /  1034.8 hPa NNW 9.0 mph /  14.5 km/h 18.0 mph /  29 km/h 46 % 0.00 in /  0 mm
00:53 17.5 °F /  -8.1 °C 0.2 °F /  -17.7 °C 30.57 in /  1035.1 hPa NNW 7.0 mph /  11.3 km/h 14.0 mph /  22.5 km/h 46 % 0.00 in /  0 mm
00:58 17.4 °F /  -8.1 °C -0.4 °F /  -18 °C 30.57 in /  1035.1 hPa NNW 6.8 mph /  10.9 km/h 13.8 mph /  22.2 km/h 45 % 0.00 in /  0 mm
01:03 17.3 °F /  -8.2 °C 0.0 °F /  -17.8 °C 30.56 in /  1034.8 hPa NNW 8.3 mph /  13.4 km/h 12.7 mph /  20.4 km/h 46 % 0.00 in /  0 mm
01:08 17.3 °F /  -8.2 °C 0.0 °F /  -17.8 °C 30.56 in /  1034.8 hPa North 7.0 mph /  11.3 km/h 11.5 mph /  18.5 km/h 46 % 0.00 in /  0 mm
01:13 17.3 °F /  -8.2 °C 0.5 °F /  -17.5 °C 30.57 in /  1035.1 hPa WNW 5.6 mph /  9 km/h 11.5 mph /  18.5 km/h 47 % 0.00 in /  0 mm
01:18 17.2 °F /  -8.2 °C 0.8 °F /  -17.3 °C 30.57 in /  1035.1 hPa NNE 7.0 mph /  11.3 km/h 14.0 mph /  22.5 km/h 48 % 0.00 in /  0 mm
01:23 17.1 °F /  -8.3 °C -0.6 °F /  -18.1 °C 30.56 in /  1034.8 hPa NNW 6.7 mph /  10.8 km/h 16.1 mph /  25.9 km/h 45 % 0.00 in /  0 mm
01:28 17.0 °F /  -8.3 °C -1.2 °F /  -18.4 °C 30.57 in /  1035.1 hPa NW 8.9 mph /  14.3 km/h 18.4 mph /  29.6 km/h 44 % 0.00 in /  0 mm
01:33 17.0 °F /  -8.3 °C -0.7 °F /  -18.2 °C 30.57 in /  1035.1 hPa NNW 7.3 mph /  11.7 km/h 14.0 mph /  22.5 km/h 45 % 0.00 in /  0 mm
01:39 16.9 °F /  -8.4 °C 0.1 °F /  -17.7 °C 30.57 in /  1035.1 hPa NNW 9.5 mph /  15.3 km/h 19.6 mph /  31.5 km/h 47 % 0.00 in /  0 mm
01:44 16.9 °F /  -8.4 °C -1.3 °F /  -18.5 °C 30.57 in /  1035.1 hPa West 6.6 mph /  10.6 km/h 11.5 mph /  18.5 km/h 44 % 0.00 in /  0 mm
01:49 16.8 °F /  -8.4 °C -0.9 °F /  -18.3 °C 30.57 in /  1035.1 hPa NW 6.5 mph /  10.5 km/h 11.5 mph /  18.5 km/h 45 % 0.00 in /  0 mm
01:54 16.8 °F /  -8.4 °C -0.9 °F /  -18.3 °C 30.57 in /  1035.1 hPa NNW 8.3 mph /  13.4 km/h 13.0 mph /  20.9 km/h 45 % 0.00 in /  0 mm
01:59 16.8 °F /  -8.4 °C -1.4 °F /  -18.6 °C 30.56 in /  1034.8 hPa North 3.6 mph /  5.8 km/h 11.5 mph /  18.5 km/h 44 % 0.00 in /  0 mm
02:04 16.7 °F /  -8.5 °C -0.5 °F /  -18.1 °C 30.57 in /  1035.1 hPa NNW 4.6 mph /  7.4 km/h 8.1 mph /  13 km/h 46 % 0.00 in /  0 mm
02:09 16.7 °F /  -8.5 °C -1.0 °F /  -18.3 °C 30.56 in /  1034.8 hPa NNW 8.5 mph /  13.7 km/h 13.8 mph /  22.2 km/h 45 % 0.00 in /  0 mm
02:14 16.6 °F /  -8.6 °C -1.1 °F /  -18.4 °C 30.55 in /  1034.4 hPa WNW 7.3 mph /  11.7 km/h 16.1 mph /  25.9 km/h 45 % 0.00 in /  0 mm
02:19 16.6 °F /  -8.6 °C -0.6 °F /  -18.1 °C 30.55 in /  1034.4 hPa NNW 6.4 mph /  10.3 km/h 11.5 mph /  18.5 km/h 46 % 0.00 in /  0 mm
02:24 16.6 °F /  -8.6 °C -0.6 °F /  -18.1 °C 30.56 in /  1034.8 hPa NW 7.9 mph /  12.7 km/h 12.7 mph /  20.4 km/h 46 % 0.00 in /  0 mm
02:29 16.5 °F /  -8.6 °C 0.2 °F /  -17.7 °C 30.56 in /  1034.8 hPa NNE 4.9 mph /  7.9 km/h 8.1 mph /  13 km/h 48 % 0.00 in /  0 mm
02:34 16.5 °F /  -8.6 °C -0.3 °F /  -17.9 °C 30.56 in /  1034.8 hPa NNW 5.1 mph /  8.2 km/h 10.4 mph /  16.7 km/h 47 % 0.00 in /  0 mm
02:39 16.4 °F /  -8.7 °C 0.1 °F /  -17.7 °C 30.56 in /  1034.8 hPa NW 9.3 mph /  15 km/h 16.1 mph /  25.9 km/h 48 % 0.00 in /  0 mm
02:44 16.4 °F /  -8.7 °C 0.1 °F /  -17.7 °C 30.56 in /  1034.8 hPa WNW 5.6 mph /  9 km/h 8.1 mph /  13 km/h 48 % 0.00 in /  0 mm
02:49 16.4 °F /  -8.7 °C -0.3 °F /  -17.9 °C 30.56 in /  1034.8 hPa NW 5.3 mph /  8.5 km/h 12.7 mph /  20.4 km/h 47 % 0.00 in /  0 mm
02:55 16.4 °F /  -8.7 °C -0.3 °F /  -17.9 °C 30.56 in /  1034.8 hPa NNW 9.0 mph /  14.5 km/h 12.7 mph /  20.4 km/h 47 % 0.00 in /  0 mm
03:00 16.3 °F /  -8.7 °C -0.9 °F /  -18.3 °C 30.57 in /  1035.1 hPa NW 5.5 mph /  8.9 km/h 8.1 mph /  13 km/h 46 % 0.00 in /  0 mm
03:05 16.2 °F /  -8.8 °C -1.0 °F /  -18.3 °C 30.57 in /  1035.1 hPa NW 7.1 mph /  11.4 km/h 13.0 mph /  20.9 km/h 46 % 0.00 in /  0 mm
03:10 16.2 °F /  -8.8 °C -0.5 °F /  -18.1 °C 30.57 in /  1035.1 hPa NW 3.2 mph /  5.1 km/h 7.0 mph /  11.3 km/h 47 % 0.00 in /  0 mm
03:15 16.1 °F /  -8.8 °C -0.2 °F /  -17.9 °C 30.57 in /  1035.1 hPa North 3.8 mph /  6.1 km/h 6.9 mph /  11.1 km/h 48 % 0.00 in /  0 mm
03:20 16.1 °F /  -8.8 °C -1.1 °F /  -18.4 °C 30.57 in /  1035.1 hPa North 6.3 mph /  10.1 km/h 13.8 mph /  22.2 km/h 46 % 0.00 in /  0 mm
03:25 16.0 °F /  -8.9 °C -1.2 °F /  -18.4 °C 30.56 in /  1034.8 hPa NW 5.9 mph /  9.5 km/h 13.0 mph /  20.9 km/h 46 % 0.00 in /  0 mm
03:30 16.0 °F /  -8.9 °C -0.7 °F /  -18.2 °C 30.57 in /  1035.1 hPa NNW 4.3 mph /  6.9 km/h 9.2 mph /  14.8 km/h 47 % 0.00 in /  0 mm
03:35 16.0 °F /  -8.9 °C -1.2 °F /  -18.4 °C 30.57 in /  1035.1 hPa NNW 5.2 mph /  8.4 km/h 10.4 mph /  16.7 km/h 46 % 0.00 in /  0 mm
03:40 16.0 °F /  -8.9 °C -0.7 °F /  -18.2 °C 30.57 in /  1035.1 hPa NW 5.1 mph /  8.2 km/h 11.5 mph /  18.5 km/h 47 % 0.00 in /  0 mm
03:45 15.9 °F /  -8.9 °C -1.3 °F /  -18.5 °C 30.57 in /  1035.1 hPa NNW 6.5 mph /  10.5 km/h 15.0 mph /  24.1 km/h 46 % 0.00 in /  0 mm
03:50 15.9 °F /  -8.9 °C -1.7 °F /  -18.7 °C 30.57 in /  1035.1 hPa NW 5.1 mph /  8.2 km/h 10.4 mph /  16.7 km/h 45 % 0.00 in /  0 mm
03:55 15.8 °F /  -9 °C -1.4 °F /  -18.6 °C 30.57 in /  1035.1 hPa West 8.3 mph /  13.4 km/h 16.1 mph /  25.9 km/h 46 % 0.00 in /  0 mm
04:01 15.8 °F /  -9 °C -2.3 °F /  -19.1 °C 30.57 in /  1035.1 hPa WNW 7.6 mph /  12.2 km/h 10.4 mph /  16.7 km/h 44 % 0.00 in /  0 mm
04:06 15.8 °F /  -9 °C -1.8 °F /  -18.8 °C 30.57 in /  1035.1 hPa NW 6.3 mph /  10.1 km/h 11.5 mph /  18.5 km/h 45 % 0.00 in /  0 mm
04:11 15.7 °F /  -9.1 °C -1.9 °F /  -18.8 °C 30.57 in /  1035.1 hPa NNW 6.9 mph /  11.1 km/h 12.0 mph /  19.3 km/h 45 % 0.00 in /  0 mm
04:16 15.7 °F /  -9.1 °C -1.4 °F /  -18.6 °C 30.58 in /  1035.4 hPa NW 6.7 mph /  10.8 km/h 12.7 mph /  20.4 km/h 46 % 0.00 in /  0 mm
04:21 15.7 °F /  -9.1 °C -1.4 °F /  -18.6 °C 30.58 in /  1035.4 hPa NNW 6.7 mph /  10.8 km/h 13.8 mph /  22.2 km/h 46 % 0.00 in /  0 mm
04:26 15.7 °F /  -9.1 °C -1.0 °F /  -18.3 °C 30.58 in /  1035.4 hPa NNW 6.9 mph /  11.1 km/h 10.0 mph /  16.1 km/h 47 % 0.00 in /  0 mm
04:31 15.7 °F /  -9.1 °C -1.0 °F /  -18.3 °C 30.59 in /  1035.8 hPa NNW 4.9 mph /  7.9 km/h 10.4 mph /  16.7 km/h 47 % 0.00 in /  0 mm
04:36 15.7 °F /  -9.1 °C -1.4 °F /  -18.6 °C 30.58 in /  1035.4 hPa NNW 7.1 mph /  11.4 km/h 11.5 mph /  18.5 km/h 46 % 0.00 in /  0 mm
04:41 15.7 °F /  -9.1 °C -0.1 °F /  -17.8 °C 30.58 in /  1035.4 hPa NW 7.7 mph /  12.4 km/h 15.0 mph /  24.1 km/h 49 % 0.00 in /  0 mm
04:46 15.7 °F /  -9.1 °C -1.0 °F /  -18.3 °C 30.58 in /  1035.4 hPa NW 6.0 mph /  9.7 km/h 10.4 mph /  16.7 km/h 47 % 0.00 in /  0 mm
04:51 15.8 °F /  -9 °C -0.9 °F /  -18.3 °C 30.59 in /  1035.8 hPa NNW 4.1 mph /  6.6 km/h 10.4 mph /  16.7 km/h 47 % 0.00 in /  0 mm
04:56 15.8 °F /  -9 °C -0.9 °F /  -18.3 °C 30.59 in /  1035.8 hPa North 4.7 mph /  7.6 km/h 8.1 mph /  13 km/h 47 % 0.00 in /  0 mm
05:01 15.8 °F /  -9 °C -0.9 °F /  -18.3 °C 30.59 in /  1035.8 hPa NNW 4.5 mph /  7.2 km/h 8.1 mph /  13 km/h 47 % 0.00 in /  0 mm
05:06 15.7 °F /  -9.1 °C -1.0 °F /  -18.3 °C 30.60 in /  1036.1 hPa NW 5.8 mph /  9.3 km/h 11.5 mph /  18.5 km/h 47 % 0.00 in /  0 mm
05:12 15.7 °F /  -9.1 °C -1.0 °F /  -18.3 °C 30.59 in /  1035.8 hPa NW 2.5 mph /  4 km/h 9.2 mph /  14.8 km/h 47 % 0.00 in /  0 mm
05:17 15.5 °F /  -9.2 °C -1.2 °F /  -18.4 °C 30.60 in /  1036.1 hPa NW 5.2 mph /  8.4 km/h 9.0 mph /  14.5 km/h 47 % 0.00 in /  0 mm
05:22 15.5 °F /  -9.2 °C -1.2 °F /  -18.4 °C 30.60 in /  1036.1 hPa WNW 6.4 mph /  10.3 km/h 10.0 mph /  16.1 km/h 47 % 0.00 in /  0 mm
05:27 15.4 °F /  -9.2 °C -1.7 °F /  -18.7 °C 30.60 in /  1036.1 hPa WNW 5.4 mph /  8.7 km/h 11.5 mph /  18.5 km/h 46 % 0.00 in /  0 mm
05:32 15.4 °F /  -9.2 °C -1.7 °F /  -18.7 °C 30.60 in /  1036.1 hPa NNW 7.3 mph /  11.7 km/h 9.0 mph /  14.5 km/h 46 % 0.00 in /  0 mm
05:37 15.3 °F /  -9.3 °C -1.8 °F /  -18.8 °C 30.60 in /  1036.1 hPa NW 7.7 mph /  12.4 km/h 11.5 mph /  18.5 km/h 46 % 0.00 in /  0 mm
05:42 15.3 °F /  -9.3 °C -2.3 °F /  -19.1 °C 30.60 in /  1036.1 hPa NW 5.6 mph /  9 km/h 12.7 mph /  20.4 km/h 45 % 0.00 in /  0 mm
05:47 15.3 °F /  -9.3 °C -2.3 °F /  -19.1 °C 30.60 in /  1036.1 hPa NNW 7.5 mph /  12.1 km/h 10.4 mph /  16.7 km/h 45 % 0.00 in /  0 mm
05:52 15.3 °F /  -9.3 °C -1.8 °F /  -18.8 °C 30.60 in /  1036.1 hPa West 5.4 mph /  8.7 km/h 11.5 mph /  18.5 km/h 46 % 0.00 in /  0 mm
05:57 15.3 °F /  -9.3 °C -2.3 °F /  -19.1 °C 30.60 in /  1036.1 hPa North 3.5 mph /  5.6 km/h 6.9 mph /  11.1 km/h 45 % 0.00 in /  0 mm
06:02 15.3 °F /  -9.3 °C -1.8 °F /  -18.8 °C 30.60 in /  1036.1 hPa NW 5.7 mph /  9.2 km/h 9.2 mph /  14.8 km/h 46 % 0.00 in /  0 mm
06:08 15.3 °F /  -9.3 °C -1.8 °F /  -18.8 °C 30.60 in /  1036.1 hPa NNW 5.7 mph /  9.2 km/h 15.0 mph /  24.1 km/h 46 % 0.00 in /  0 mm
06:13 15.3 °F /  -9.3 °C -1.8 °F /  -18.8 °C 30.60 in /  1036.1 hPa WNW 8.6 mph /  13.8 km/h 13.8 mph /  22.2 km/h 46 % 0.00 in /  0 mm
06:18 15.3 °F /  -9.3 °C -2.3 °F /  -19.1 °C 30.61 in /  1036.5 hPa NNW 8.0 mph /  12.9 km/h 8.1 mph /  13 km/h 45 % 0.00 in /  0 mm
06:23 15.3 °F /  -9.3 °C -0.9 °F /  -18.3 °C 30.61 in /  1036.5 hPa NW 5.0 mph /  8 km/h 14.0 mph /  22.5 km/h 48 % 0.00 in /  0 mm
06:28 15.2 °F /  -9.3 °C -1.9 °F /  -18.8 °C 30.61 in /  1036.5 hPa NW 6.0 mph /  9.7 km/h 12.0 mph /  19.3 km/h 46 % 0.00 in /  0 mm
06:33 15.2 °F /  -9.3 °C -1.5 °F /  -18.6 °C 30.61 in /  1036.5 hPa NW 1.0 mph /  1.6 km/h 13.0 mph /  20.9 km/h 47 % 0.00 in /  0 mm
06:38 15.2 °F /  -9.3 °C -1.5 °F /  -18.6 °C 30.61 in /  1036.5 hPa NW 7.0 mph /  11.3 km/h 12.0 mph /  19.3 km/h 47 % 0.00 in /  0 mm
06:43 15.3 °F /  -9.3 °C -0.9 °F /  -18.3 °C 30.61 in /  1036.5 hPa NW 5.0 mph /  8 km/h 14.0 mph /  22.5 km/h 48 % 0.00 in /  0 mm
06:45 15.4 °F /  -9.2 °C -1.7 °F /  -18.7 °C 30.61 in /  1036.5 hPa WNW 4.4 mph /  7.1 km/h 17.3 mph /  27.8 km/h 46 % 0.00 in /  0 mm
06:50 15.5 °F /  -9.2 °C -1.6 °F /  -18.7 °C 30.62 in /  1036.8 hPa WNW 10.2 mph /  16.4 km/h 17.3 mph /  27.8 km/h 46 % 0.00 in /  0 mm
06:56 15.7 °F /  -9.1 °C -1.0 °F /  -18.3 °C 30.62 in /  1036.8 hPa NNW 4.6 mph /  7.4 km/h 7.0 mph /  11.3 km/h 47 % 0.00 in /  0 mm
07:01 15.9 °F /  -8.9 °C -0.8 °F /  -18.2 °C 30.62 in /  1036.8 hPa NW 6.5 mph /  10.5 km/h 11.5 mph /  18.5 km/h 47 % 0.00 in /  0 mm
07:06 16.1 °F /  -8.8 °C -1.1 °F /  -18.4 °C 30.62 in /  1036.8 hPa NNW 5.8 mph /  9.3 km/h 11.5 mph /  18.5 km/h 46 % 0.00 in /  0 mm
07:11 16.2 °F /  -8.8 °C -1.0 °F /  -18.3 °C 30.62 in /  1036.8 hPa NNE 6.4 mph /  10.3 km/h 10.4 mph /  16.7 km/h 46 % 0.00 in /  0 mm
07:16 16.4 °F /  -8.7 °C -0.8 °F /  -18.2 °C 30.62 in /  1036.8 hPa NW 8.5 mph /  13.7 km/h 13.8 mph /  22.2 km/h 46 % 0.00 in /  0 mm
07:21 16.6 °F /  -8.6 °C -1.6 °F /  -18.7 °C 30.62 in /  1036.8 hPa WNW 7.8 mph /  12.6 km/h 10.0 mph /  16.1 km/h 44 % 0.00 in /  0 mm
07:26 16.7 °F /  -8.5 °C -1.0 °F /  -18.3 °C 30.61 in /  1036.5 hPa NW 4.8 mph /  7.7 km/h 10.4 mph /  16.7 km/h 45 % 0.00 in /  0 mm
07:31 17.0 °F /  -8.3 °C -0.3 °F /  -17.9 °C 30.61 in /  1036.5 hPa WNW 6.3 mph /  10.1 km/h 13.0 mph /  20.9 km/h 46 % 0.00 in /  0 mm
07:36 17.1 °F /  -8.3 °C -0.2 °F /  -17.9 °C 30.62 in /  1036.8 hPa NW 4.5 mph /  7.2 km/h 8.1 mph /  13 km/h 46 % 0.00 in /  0 mm
07:41 17.3 °F /  -8.2 °C 0.0 °F /  -17.8 °C 30.61 in /  1036.5 hPa WNW 4.5 mph /  7.2 km/h 11.5 mph /  18.5 km/h 46 % 0.00 in /  0 mm
07:46 17.5 °F /  -8.1 °C -1.2 °F /  -18.4 °C 30.61 in /  1036.5 hPa WNW 6.4 mph /  10.3 km/h 17.3 mph /  27.8 km/h 43 % 0.00 in /  0 mm
07:51 17.7 °F /  -7.9 °C -1.0 °F /  -18.3 °C 30.61 in /  1036.5 hPa NW 4.9 mph /  7.9 km/h 11.5 mph /  18.5 km/h 43 % 0.00 in /  0 mm
07:56 18.0 °F /  -7.8 °C -0.3 °F /  -17.9 °C 30.61 in /  1036.5 hPa NW 5.0 mph /  8 km/h 12.0 mph /  19.3 km/h 44 % 0.00 in /  0 mm
08:01 18.2 °F /  -7.7 °C -0.6 °F /  -18.1 °C 30.61 in /  1036.5 hPa NNW 7.8 mph /  12.6 km/h 13.8 mph /  22.2 km/h 43 % 0.00 in /  0 mm
08:07 18.4 °F /  -7.6 °C -0.4 °F /  -18 °C 30.62 in /  1036.8 hPa NW 8.5 mph /  13.7 km/h 11.5 mph /  18.5 km/h 43 % 0.00 in /  0 mm
08:12 18.6 °F /  -7.4 °C -0.2 °F /  -17.9 °C 30.62 in /  1036.8 hPa NNW 6.1 mph /  9.8 km/h 10.0 mph /  16.1 km/h 43 % 0.00 in /  0 mm
08:17 18.9 °F /  -7.3 °C 1.0 °F /  -17.2 °C 30.62 in /  1036.8 hPa NNW 8.3 mph /  13.4 km/h 13.0 mph /  20.9 km/h 45 % 0.00 in /  0 mm
08:22 19.3 °F /  -7.1 °C -0.1 °F /  -17.8 °C 30.62 in /  1036.8 hPa West 3.8 mph /  6.1 km/h 8.0 mph /  12.9 km/h 42 % 0.00 in /  0 mm
08:27 19.6 °F /  -6.9 °C 0.2 °F /  -17.7 °C 30.62 in /  1036.8 hPa NW 7.5 mph /  12.1 km/h 12.7 mph /  20.4 km/h 42 % 0.00 in /  0 mm
08:32 19.9 °F /  -6.7 °C -0.6 °F /  -18.1 °C 30.62 in /  1036.8 hPa WSW 8.1 mph /  13 km/h 13.8 mph /  22.2 km/h 40 % 0.00 in /  0 mm
08:37 20.0 °F /  -6.7 °C -0.5 °F /  -18.1 °C 30.61 in /  1036.5 hPa NNW 7.7 mph /  12.4 km/h 15.0 mph /  24.1 km/h 40 % 0.00 in /  0 mm
08:42 20.0 °F /  -6.7 °C -1.0 °F /  -18.3 °C 30.62 in /  1036.8 hPa NNW 6.6 mph /  10.6 km/h 15.0 mph /  24.1 km/h 39 % 0.00 in /  0 mm
08:47 20.2 °F /  -6.6 °C 0.2 °F /  -17.7 °C 30.61 in /  1036.5 hPa NNW 8.2 mph /  13.2 km/h 13.8 mph /  22.2 km/h 41 % 0.00 in /  0 mm
08:52 20.5 °F /  -6.4 °C 0.0 °F /  -17.8 °C 30.62 in /  1036.8 hPa NNW 7.7 mph /  12.4 km/h 11.5 mph /  18.5 km/h 40 % 0.00 in /  0 mm
08:57 20.7 °F /  -6.3 °C -0.4 °F /  -18 °C 30.62 in /  1036.8 hPa NNW 3.9 mph /  6.3 km/h 9.2 mph /  14.8 km/h 39 % 0.00 in /  0 mm
09:02 20.7 °F /  -6.3 °C -1.5 °F /  -18.6 °C 30.62 in /  1036.8 hPa NNE 8.7 mph /  14 km/h 15.0 mph /  24.1 km/h 37 % 0.00 in /  0 mm
09:07 21.0 °F /  -6.1 °C -0.1 °F /  -17.8 °C 30.62 in /  1036.8 hPa NNW 4.2 mph /  6.8 km/h 9.2 mph /  14.8 km/h 39 % 0.00 in /  0 mm
09:12 21.3 °F /  -5.9 °C -0.4 °F /  -18 °C 30.62 in /  1036.8 hPa WNW 8.9 mph /  14.3 km/h 17.3 mph /  27.8 km/h 38 % 0.00 in /  0 mm
09:18 21.7 °F /  -5.7 °C 0.0 °F /  -17.8 °C 30.62 in /  1036.8 hPa NNW 8.9 mph /  14.3 km/h 12.7 mph /  20.4 km/h 38 % 0.00 in /  0 mm
09:23 22.1 °F /  -5.5 °C 0.3 °F /  -17.6 °C 30.61 in /  1036.5 hPa WNW 6.5 mph /  10.5 km/h 12.0 mph /  19.3 km/h 38 % 0.00 in /  0 mm
09:28 22.5 °F /  -5.3 °C 0.7 °F /  -17.4 °C 30.61 in /  1036.5 hPa NNE 6.4 mph /  10.3 km/h 11.5 mph /  18.5 km/h 38 % 0.00 in /  0 mm
09:33 23.2 °F /  -4.9 °C 1.9 °F /  -16.7 °C 30.61 in /  1036.5 hPa WNW 7.3 mph /  11.7 km/h 8.0 mph /  12.9 km/h 39 % 0.00 in /  0 mm
09:38 23.8 °F /  -4.6 °C 1.3 °F /  -17.1 °C 30.61 in /  1036.5 hPa NW 5.4 mph /  8.7 km/h 6.9 mph /  11.1 km/h 37 % 0.00 in /  0 mm
09:43 24.0 °F /  -4.4 °C 0.9 °F /  -17.3 °C 30.61 in /  1036.5 hPa NW 5.0 mph /  8 km/h 16.0 mph /  25.7 km/h 36 % 0.00 in /  0 mm
09:48 24.1 °F /  -4.4 °C 0.3 °F /  -17.6 °C 30.61 in /  1036.5 hPa NW 6.0 mph /  9.7 km/h 14.0 mph /  22.5 km/h 35 % 0.00 in /  0 mm
09:53 24.3 °F /  -4.3 °C 0.5 °F /  -17.5 °C 30.61 in /  1036.5 hPa NW 8.0 mph /  12.9 km/h 15.0 mph /  24.1 km/h 35 % 0.00 in /  0 mm
09:58 24.5 °F /  -4.2 °C 0.7 °F /  -17.4 °C 30.60 in /  1036.1 hPa NW 5.7 mph /  9.2 km/h 12.7 mph /  20.4 km/h 35 % 0.00 in /  0 mm
10:03 24.8 °F /  -4 °C 1.6 °F /  -16.9 °C 30.60 in /  1036.1 hPa NW 4.5 mph /  7.2 km/h 8.1 mph /  13 km/h 36 % 0.00 in /  0 mm
10:08 25.1 °F /  -3.8 °C 0.6 °F /  -17.4 °C 30.60 in /  1036.1 hPa NW 5.5 mph /  8.9 km/h 9.2 mph /  14.8 km/h 34 % 0.00 in /  0 mm
10:13 25.3 °F /  -3.7 °C 0.2 °F /  -17.7 °C 30.59 in /  1035.8 hPa NNW 6.6 mph /  10.6 km/h 11.5 mph /  18.5 km/h 33 % 0.00 in /  0 mm
10:18 25.5 °F /  -3.6 °C 0.3 °F /  -17.6 °C 30.60 in /  1036.1 hPa NW 6.8 mph /  10.9 km/h 12.7 mph /  20.4 km/h 33 % 0.00 in /  0 mm
10:23 25.9 °F /  -3.4 °C 1.3 °F /  -17.1 °C 30.59 in /  1035.8 hPa NNW 6.6 mph /  10.6 km/h 12.7 mph /  20.4 km/h 34 % 0.00 in /  0 mm
10:28 26.3 °F /  -3.2 °C 1.0 °F /  -17.2 °C 30.59 in /  1035.8 hPa WNW 6.7 mph /  10.8 km/h 11.5 mph /  18.5 km/h 33 % 0.00 in /  0 mm
10:33 26.7 °F /  -2.9 °C 2.0 °F /  -16.7 °C 30.59 in /  1035.8 hPa North 6.4 mph /  10.3 km/h 11.5 mph /  18.5 km/h 34 % 0.00 in /  0 mm
10:38 27.4 °F /  -2.6 °C 3.3 °F /  -15.9 °C 30.59 in /  1035.8 hPa NNW 4.4 mph /  7.1 km/h 11.5 mph /  18.5 km/h 35 % 0.00 in /  0 mm
10:44 28.0 °F /  -2.2 °C 2.6 °F /  -16.3 °C 30.58 in /  1035.4 hPa NW 7.8 mph /  12.6 km/h 16.1 mph /  25.9 km/h 33 % 0.00 in /  0 mm
10:49 28.3 °F /  -2.1 °C 1.5 °F /  -16.9 °C 30.58 in /  1035.4 hPa NNW 6.8 mph /  10.9 km/h 16.1 mph /  25.9 km/h 31 % 0.00 in /  0 mm
10:54 28.6 °F /  -1.9 °C 1.7 °F /  -16.8 °C 30.58 in /  1035.4 hPa NNW 7.6 mph /  12.2 km/h 15.0 mph /  24.1 km/h 31 % 0.00 in /  0 mm
10:59 28.9 °F /  -1.7 °C 2.7 °F /  -16.3 °C 30.58 in /  1035.4 hPa NW 6.7 mph /  10.8 km/h 12.7 mph /  20.4 km/h 32 % 0.00 in /  0 mm
11:04 29.1 °F /  -1.6 °C 2.9 °F /  -16.2 °C 30.58 in /  1035.4 hPa NW 7.2 mph /  11.6 km/h 12.7 mph /  20.4 km/h 32 % 0.00 in /  0 mm
11:09 29.4 °F /  -1.4 °C 3.8 °F /  -15.7 °C 30.58 in /  1035.4 hPa NW 6.3 mph /  10.1 km/h 13.0 mph /  20.9 km/h 33 % 0.00 in /  0 mm
11:14 30.0 °F /  -1.1 °C 3.0 °F /  -16.1 °C 30.58 in /  1035.4 hPa NNW 6.8 mph /  10.9 km/h 11.5 mph /  18.5 km/h 31 % 0.00 in /  0 mm
11:19 30.4 °F /  -0.9 °C 4.7 °F /  -15.2 °C 30.57 in /  1035.1 hPa NNW 7.7 mph /  12.4 km/h 12.0 mph /  19.3 km/h 33 % 0.00 in /  0 mm
11:25 30.5 °F /  -0.8 °C 3.4 °F /  -15.9 °C 30.57 in /  1035.1 hPa North 7.1 mph /  11.4 km/h 11.5 mph /  18.5 km/h 31 % 0.00 in /  0 mm
11:30 30.8 °F /  -0.7 °C 3.7 °F /  -15.7 °C 30.57 in /  1035.1 hPa NNW 5.1 mph /  8.2 km/h 11.5 mph /  18.5 km/h 31 % 0.00 in /  0 mm
11:35 30.9 °F /  -0.6 °C 3.0 °F /  -16.1 °C 30.57 in /  1035.1 hPa North 8.1 mph /  13 km/h 12.7 mph /  20.4 km/h 30 % 0.00 in /  0 mm
11:40 31.4 °F /  -0.3 °C 2.8 °F /  -16.2 °C 30.57 in /  1035.1 hPa North 7.1 mph /  11.4 km/h 12.7 mph /  20.4 km/h 29 % 0.00 in /  0 mm
11:45 31.6 °F /  -0.2 °C 2.9 °F /  -16.2 °C 30.57 in /  1035.1 hPa NW 8.9 mph /  14.3 km/h 12.7 mph /  20.4 km/h 29 % 0.00 in /  0 mm
11:50 31.5 °F /  -0.3 °C 2.8 °F /  -16.2 °C 30.57 in /  1035.1 hPa NNW 4.9 mph /  7.9 km/h 10.4 mph /  16.7 km/h 29 % 0.00 in /  0 mm
11:55 31.6 °F /  -0.2 °C 2.9 °F /  -16.2 °C 30.56 in /  1034.8 hPa NNW 6.5 mph /  10.5 km/h 11.5 mph /  18.5 km/h 29 % 0.00 in /  0 mm
12:00 31.7 °F /  -0.2 °C 2.3 °F /  -16.5 °C 30.56 in /  1034.8 hPa NNW 6.9 mph /  11.1 km/h 13.8 mph /  22.2 km/h 28 % 0.00 in /  0 mm
12:05 32.1 °F /  0.1 °C 4.1 °F /  -15.5 °C 30.56 in /  1034.8 hPa WNW 8.0 mph /  12.9 km/h 17.3 mph /  27.8 km/h 30 % 0.00 in /  0 mm
12:10 32.1 °F /  0.1 °C 4.1 °F /  -15.5 °C 30.55 in /  1034.4 hPa NW 7.0 mph /  11.3 km/h 10.4 mph /  16.7 km/h 30 % 0.00 in /  0 mm
12:15 32.2 °F /  0.1 °C 2.7 °F /  -16.3 °C 30.55 in /  1034.4 hPa NW 6.0 mph /  9.7 km/h 11.5 mph /  18.5 km/h 28 % 0.00 in /  0 mm
12:20 32.3 °F /  0.2 °C 2.0 °F /  -16.7 °C 30.55 in /  1034.4 hPa West 7.1 mph /  11.4 km/h 15.0 mph /  24.1 km/h 27 % 0.00 in /  0 mm
12:26 32.6 °F /  0.3 °C 5.3 °F /  -14.8 °C 30.54 in /  1034.1 hPa NW 10.6 mph /  17.1 km/h 15.0 mph /  24.1 km/h 31 % 0.00 in /  0 mm
12:31 32.8 °F /  0.4 °C 2.4 °F /  -16.4 °C 30.54 in /  1034.1 hPa NNW 7.4 mph /  11.9 km/h 15.0 mph /  24.1 km/h 27 % 0.00 in /  0 mm
12:36 32.7 °F /  0.4 °C 3.1 °F /  -16.1 °C 30.53 in /  1033.7 hPa NNW 7.1 mph /  11.4 km/h 11.5 mph /  18.5 km/h 28 % 0.00 in /  0 mm
12:41 32.8 °F /  0.4 °C 3.2 °F /  -16 °C 30.53 in /  1033.7 hPa WNW 7.9 mph /  12.7 km/h 12.7 mph /  20.4 km/h 28 % 0.00 in /  0 mm
12:46 33.0 °F /  0.6 °C 4.1 °F /  -15.5 °C 30.53 in /  1033.7 hPa North 7.2 mph /  11.6 km/h 17.3 mph /  27.8 km/h 29 % 0.00 in /  0 mm
12:51 33.7 °F /  0.9 °C 4.8 °F /  -15.1 °C 30.52 in /  1033.4 hPa NW 8.6 mph /  13.8 km/h 13.0 mph /  20.9 km/h 29 % 0.00 in /  0 mm
12:56 33.7 °F /  0.9 °C 4.8 °F /  -15.1 °C 30.52 in /  1033.4 hPa NNW 6.6 mph /  10.6 km/h 11.5 mph /  18.5 km/h 29 % 0.00 in /  0 mm
13:01 33.6 °F /  0.9 °C 4.7 °F /  -15.2 °C 30.52 in /  1033.4 hPa NW 9.1 mph /  14.6 km/h 13.8 mph /  22.2 km/h 29 % 0.00 in /  0 mm
13:06 33.9 °F /  1.1 °C 4.2 °F /  -15.4 °C 30.52 in /  1033.4 hPa NW 7.4 mph /  11.9 km/h 13.8 mph /  22.2 km/h 28 % 0.00 in /  0 mm
13:11 34.0 °F /  1.1 °C 3.5 °F /  -15.8 °C 30.51 in /  1033.1 hPa NNW 4.7 mph /  7.6 km/h 16.1 mph /  25.9 km/h 27 % 0.00 in /  0 mm
13:16 34.2 °F /  1.2 °C 4.4 °F /  -15.3 °C 30.51 in /  1033.1 hPa North 6.2 mph /  10 km/h 12.7 mph /  20.4 km/h 28 % 0.00 in /  0 mm
13:21 34.5 °F /  1.4 °C 4.7 °F /  -15.2 °C 30.51 in /  1033.1 hPa NNE 6.3 mph /  10.1 km/h 11.0 mph /  17.7 km/h 28 % 0.00 in /  0 mm
13:27 34.7 °F /  1.5 °C 3.2 °F /  -16 °C 30.51 in /  1033.1 hPa NNW 4.5 mph /  7.2 km/h 11.5 mph /  18.5 km/h 26 % 0.00 in /  0 mm
13:32 34.9 °F /  1.6 °C 5.0 °F /  -15 °C 30.50 in /  1032.7 hPa North 6.0 mph /  9.7 km/h 11.5 mph /  18.5 km/h 28 % 0.00 in /  0 mm
13:37 35.0 °F /  1.7 °C 3.5 °F /  -15.8 °C 30.50 in /  1032.7 hPa WNW 6.8 mph /  10.9 km/h 11.5 mph /  18.5 km/h 26 % 0.00 in /  0 mm
13:42 35.0 °F /  1.7 °C 3.5 °F /  -15.8 °C 30.50 in /  1032.7 hPa North 7.6 mph /  12.2 km/h 9.0 mph /  14.5 km/h 26 % 0.00 in /  0 mm
13:47 35.1 °F /  1.7 °C 2.7 °F /  -16.3 °C 30.50 in /  1032.7 hPa WNW 5.6 mph /  9 km/h 10.0 mph /  16.1 km/h 25 % 0.00 in /  0 mm
13:52 35.0 °F /  1.7 °C 2.7 °F /  -16.3 °C 30.50 in /  1032.7 hPa NNW 5.5 mph /  8.9 km/h 11.5 mph /  18.5 km/h 25 % 0.00 in /  0 mm
13:57 35.0 °F /  1.7 °C 2.7 °F /  -16.3 °C 30.49 in /  1032.4 hPa NNW 6.6 mph /  10.6 km/h 11.5 mph /  18.5 km/h 25 % 0.00 in /  0 mm
14:02 35.0 °F /  1.7 °C 3.5 °F /  -15.8 °C 30.49 in /  1032.4 hPa NNW 6.2 mph /  10 km/h 11.5 mph /  18.5 km/h 26 % 0.00 in /  0 mm
14:07 35.0 °F /  1.7 °C 3.5 °F /  -15.8 °C 30.49 in /  1032.4 hPa North 7.6 mph /  12.2 km/h 11.5 mph /  18.5 km/h 26 % 0.00 in /  0 mm
14:12 35.0 °F /  1.7 °C 4.3 °F /  -15.4 °C 30.49 in /  1032.4 hPa NNW 4.1 mph /  6.6 km/h 5.8 mph /  9.3 km/h 27 % 0.00 in /  0 mm
14:17 35.0 °F /  1.7 °C 2.7 °F /  -16.3 °C 30.49 in /  1032.4 hPa NNW 6.3 mph /  10.1 km/h 12.0 mph /  19.3 km/h 25 % 0.00 in /  0 mm
14:22 35.0 °F /  1.7 °C 2.7 °F /  -16.3 °C 30.49 in /  1032.4 hPa NW 5.8 mph /  9.3 km/h 10.4 mph /  16.7 km/h 25 % 0.00 in /  0 mm
14:28 35.0 °F /  1.7 °C 2.7 °F /  -16.3 °C 30.49 in /  1032.4 hPa North 7.5 mph /  12.1 km/h 15.0 mph /  24.1 km/h 25 % 0.00 in /  0 mm
14:33 35.0 °F /  1.7 °C 3.5 °F /  -15.8 °C 30.49 in /  1032.4 hPa NNW 5.4 mph /  8.7 km/h 17.3 mph /  27.8 km/h 26 % 0.00 in /  0 mm
14:38 35.1 °F /  1.7 °C 3.6 °F /  -15.8 °C 30.48 in /  1032.1 hPa NW 6.5 mph /  10.5 km/h 10.4 mph /  16.7 km/h 26 % 0.00 in /  0 mm
14:43 35.0 °F /  1.7 °C 2.7 °F /  -16.3 °C 30.48 in /  1032.1 hPa North 5.2 mph /  8.4 km/h 11.5 mph /  18.5 km/h 25 % 0.00 in /  0 mm
14:48 34.9 °F /  1.6 °C 2.6 °F /  -16.3 °C 30.48 in /  1032.1 hPa NW 8.7 mph /  14 km/h 15.0 mph /  24.1 km/h 25 % 0.00 in /  0 mm
14:53 34.6 °F /  1.4 °C 1.4 °F /  -17 °C 30.48 in /  1032.1 hPa NNW 7.0 mph /  11.3 km/h 12.0 mph /  19.3 km/h 24 % 0.00 in /  0 mm
14:58 34.4 °F /  1.3 °C 2.1 °F /  -16.6 °C 30.48 in /  1032.1 hPa NW 3.4 mph /  5.5 km/h 10.4 mph /  16.7 km/h 25 % 0.00 in /  0 mm
15:03 34.3 °F /  1.3 °C 3.7 °F /  -15.7 °C 30.48 in /  1032.1 hPa WNW 5.2 mph /  8.4 km/h 11.5 mph /  18.5 km/h 27 % 0.00 in /  0 mm
15:08 34.2 °F /  1.2 °C 2.0 °F /  -16.7 °C 30.48 in /  1032.1 hPa NNE 5.9 mph /  9.5 km/h 11.5 mph /  18.5 km/h 25 % 0.00 in /  0 mm
15:13 34.1 °F /  1.2 °C 3.5 °F /  -15.8 °C 30.48 in /  1032.1 hPa North 5.9 mph /  9.5 km/h 10.4 mph /  16.7 km/h 27 % 0.00 in /  0 mm
15:18 33.9 °F /  1.1 °C 2.6 °F /  -16.3 °C 30.48 in /  1032.1 hPa North 7.1 mph /  11.4 km/h 11.5 mph /  18.5 km/h 26 % 0.00 in /  0 mm
15:23 33.7 °F /  0.9 °C 2.4 °F /  -16.4 °C 30.48 in /  1032.1 hPa WNW 6.8 mph /  10.9 km/h 12.7 mph /  20.4 km/h 26 % 0.00 in /  0 mm
15:28 33.6 °F /  0.9 °C 4.7 °F /  -15.2 °C 30.48 in /  1032.1 hPa NNW 3.6 mph /  5.8 km/h 6.9 mph /  11.1 km/h 29 % 0.00 in /  0 mm
15:33 33.5 °F /  0.8 °C 3.8 °F /  -15.7 °C 30.48 in /  1032.1 hPa NW 3.5 mph /  5.6 km/h 8.1 mph /  13 km/h 28 % 0.00 in /  0 mm
15:38 33.4 °F /  0.8 °C 3.7 °F /  -15.7 °C 30.48 in /  1032.1 hPa North 6.7 mph /  10.8 km/h 11.5 mph /  18.5 km/h 28 % 0.00 in /  0 mm
15:44 33.3 °F /  0.7 °C 3.6 °F /  -15.8 °C 30.48 in /  1032.1 hPa NNW 8.8 mph /  14.2 km/h 13.8 mph /  22.2 km/h 28 % 0.00 in /  0 mm
15:49 33.2 °F /  0.7 °C 3.6 °F /  -15.8 °C 30.48 in /  1032.1 hPa NNE 6.5 mph /  10.5 km/h 11.5 mph /  18.5 km/h 28 % 0.00 in /  0 mm
15:54 32.9 °F /  0.5 °C 2.5 °F /  -16.4 °C 30.48 in /  1032.1 hPa NNE 6.0 mph /  9.7 km/h 9.2 mph /  14.8 km/h 27 % 0.00 in /  0 mm
15:59 32.8 °F /  0.4 °C 3.2 °F /  -16 °C 30.47 in /  1031.7 hPa NE 7.4 mph /  11.9 km/h 10.0 mph /  16.1 km/h 28 % 0.00 in /  0 mm
16:04 32.8 °F /  0.4 °C 4.7 °F /  -15.2 °C 30.47 in /  1031.7 hPa NNE 4.7 mph /  7.6 km/h 5.8 mph /  9.3 km/h 30 % 0.00 in /  0 mm
16:09 32.8 °F /  0.4 °C 3.2 °F /  -16 °C 30.47 in /  1031.7 hPa North 7.0 mph /  11.3 km/h 11.5 mph /  18.5 km/h 28 % 0.00 in /  0 mm
16:14 32.7 °F /  0.4 °C 0.7 °F /  -17.4 °C 30.47 in /  1031.7 hPa NNE 8.7 mph /  14 km/h 13.0 mph /  20.9 km/h 25 % 0.00 in /  0 mm
16:19 32.7 °F /  0.4 °C 4.6 °F /  -15.2 °C 30.47 in /  1031.7 hPa North 7.6 mph /  12.2 km/h 11.5 mph /  18.5 km/h 30 % 0.00 in /  0 mm
16:24 32.6 °F /  0.3 °C 3.8 °F /  -15.7 °C 30.47 in /  1031.7 hPa NW 7.7 mph /  12.4 km/h 15.0 mph /  24.1 km/h 29 % 0.00 in /  0 mm
16:29 32.6 °F /  0.3 °C 3.0 °F /  -16.1 °C 30.47 in /  1031.7 hPa NNE 5.1 mph /  8.2 km/h 11.5 mph /  18.5 km/h 28 % 0.00 in /  0 mm
16:34 32.6 °F /  0.3 °C 3.0 °F /  -16.1 °C 30.47 in /  1031.7 hPa NNW 7.1 mph /  11.4 km/h 10.4 mph /  16.7 km/h 28 % 0.00 in /  0 mm
16:39 32.6 °F /  0.3 °C 3.0 °F /  -16.1 °C 30.47 in /  1031.7 hPa NNW 6.8 mph /  10.9 km/h 15.0 mph /  24.1 km/h 28 % 0.00 in /  0 mm
16:44 32.5 °F /  0.3 °C 3.7 °F /  -15.7 °C 30.47 in /  1031.7 hPa North 3.5 mph /  5.6 km/h 8.1 mph /  13 km/h 29 % 0.00 in /  0 mm
16:49 32.5 °F /  0.3 °C 4.4 °F /  -15.3 °C 30.47 in /  1031.7 hPa NNW 6.0 mph /  9.7 km/h 9.2 mph /  14.8 km/h 30 % 0.00 in /  0 mm
16:54 32.4 °F /  0.2 °C 3.6 °F /  -15.8 °C 30.47 in /  1031.7 hPa North 8.1 mph /  13 km/h 12.0 mph /  19.3 km/h 29 % 0.00 in /  0 mm
16:59 32.3 °F /  0.2 °C 2.0 °F /  -16.7 °C 30.47 in /  1031.7 hPa NNW 4.1 mph /  6.6 km/h 9.2 mph /  14.8 km/h 27 % 0.00 in /  0 mm
17:05 32.2 °F /  0.1 °C 4.2 °F /  -15.4 °C 30.47 in /  1031.7 hPa NNW 6.5 mph /  10.5 km/h 9.0 mph /  14.5 km/h 30 % 0.00 in /  0 mm
17:10 32.1 °F /  0.1 °C 3.4 °F /  -15.9 °C 30.47 in /  1031.7 hPa NNE 5.7 mph /  9.2 km/h 9.2 mph /  14.8 km/h 29 % 0.00 in /  0 mm
17:15 32.0 °F /  0 °C 2.5 °F /  -16.4 °C 30.47 in /  1031.7 hPa North 6.2 mph /  10 km/h 10.4 mph /  16.7 km/h 28 % 0.00 in /  0 mm
17:20 31.8 °F /  -0.1 °C 3.1 °F /  -16.1 °C 30.47 in /  1031.7 hPa NNW 4.3 mph /  6.9 km/h 7.0 mph /  11.3 km/h 29 % 0.00 in /  0 mm
17:25 31.7 °F /  -0.2 °C 2.3 °F /  -16.5 °C 30.47 in /  1031.7 hPa NNE 5.5 mph /  8.9 km/h 11.5 mph /  18.5 km/h 28 % 0.00 in /  0 mm
17:30 31.5 °F /  -0.3 °C 2.8 °F /  -16.2 °C 30.47 in /  1031.7 hPa NNE 9.3 mph /  15 km/h 11.5 mph /  18.5 km/h 29 % 0.00 in /  0 mm
17:35 31.4 °F /  -0.3 °C 2.8 °F /  -16.2 °C 30.47 in /  1031.7 hPa North 5.6 mph /  9 km/h 12.7 mph /  20.4 km/h 29 % 0.00 in /  0 mm
17:40 31.3 °F /  -0.4 °C 3.4 °F /  -15.9 °C 30.47 in /  1031.7 hPa North 6.1 mph /  9.8 km/h 12.7 mph /  20.4 km/h 30 % 0.00 in /  0 mm
17:45 31.2 °F /  -0.4 °C 3.3 °F /  -15.9 °C 30.47 in /  1031.7 hPa NNE 5.7 mph /  9.2 km/h 8.0 mph /  12.9 km/h 30 % 0.00 in /  0 mm
17:50 31.1 °F /  -0.5 °C 3.2 °F /  -16 °C 30.48 in /  1032.1 hPa North 6.2 mph /  10 km/h 11.5 mph /  18.5 km/h 30 % 0.00 in /  0 mm
17:55 31.0 °F /  -0.6 °C 3.1 °F /  -16.1 °C 30.48 in /  1032.1 hPa North 5.3 mph /  8.5 km/h 12.7 mph /  20.4 km/h 30 % 0.00 in /  0 mm
18:00 30.9 °F /  -0.6 °C 2.3 °F /  -16.5 °C 30.49 in /  1032.4 hPa NE 6.7 mph /  10.8 km/h 11.5 mph /  18.5 km/h 29 % 0.00 in /  0 mm
18:05 30.8 °F /  -0.7 °C 3.0 °F /  -16.1 °C 30.49 in /  1032.4 hPa North 4.9 mph /  7.9 km/h 9.2 mph /  14.8 km/h 30 % 0.00 in /  0 mm
18:10 30.8 °F /  -0.7 °C 5.0 °F /  -15 °C 30.49 in /  1032.4 hPa NNE 5.1 mph /  8.2 km/h 9.2 mph /  14.8 km/h 33 % 0.00 in /  0 mm
18:16 30.7 °F /  -0.7 °C 3.6 °F /  -15.8 °C 30.49 in /  1032.4 hPa NNW 7.5 mph /  12.1 km/h 15.0 mph /  24.1 km/h 31 % 0.00 in /  0 mm
18:21 30.7 °F /  -0.7 °C 2.9 °F /  -16.2 °C 30.49 in /  1032.4 hPa NNW 8.9 mph /  14.3 km/h 15.0 mph /  24.1 km/h 30 % 0.00 in /  0 mm
18:26 30.6 °F /  -0.8 °C 3.5 °F /  -15.8 °C 30.50 in /  1032.7 hPa NE 5.4 mph /  8.7 km/h 9.0 mph /  14.5 km/h 31 % 0.00 in /  0 mm
18:31 30.6 °F /  -0.8 °C 2.8 °F /  -16.2 °C 30.49 in /  1032.4 hPa North 4.0 mph /  6.4 km/h 11.5 mph /  18.5 km/h 30 % 0.00 in /  0 mm
18:36 30.5 °F /  -0.8 °C 2.7 °F /  -16.3 °C 30.50 in /  1032.7 hPa NW 5.7 mph /  9.2 km/h 10.4 mph /  16.7 km/h 30 % 0.00 in /  0 mm
18:41 30.4 °F /  -0.9 °C 3.3 °F /  -15.9 °C 30.50 in /  1032.7 hPa NNE 4.3 mph /  6.9 km/h 11.5 mph /  18.5 km/h 31 % 0.00 in /  0 mm
18:46 30.3 °F /  -0.9 °C 3.2 °F /  -16 °C 30.50 in /  1032.7 hPa NNE 6.3 mph /  10.1 km/h 13.8 mph /  22.2 km/h 31 % 0.00 in /  0 mm
18:51 30.3 °F /  -0.9 °C 3.2 °F /  -16 °C 30.50 in /  1032.7 hPa NNE 5.0 mph /  8 km/h 17.3 mph /  27.8 km/h 31 % 0.00 in /  0 mm
18:56 30.2 °F /  -1 °C 2.4 °F /  -16.4 °C 30.51 in /  1033.1 hPa NNE 4.7 mph /  7.6 km/h 10.0 mph /  16.1 km/h 30 % 0.00 in /  0 mm
19:01 30.2 °F /  -1 °C 1.7 °F /  -16.8 °C 30.50 in /  1032.7 hPa North 8.3 mph /  13.4 km/h 15.0 mph /  24.1 km/h 29 % 0.00 in /  0 mm
19:06 30.1 °F /  -1.1 °C 3.1 °F /  -16.1 °C 30.50 in /  1032.7 hPa NNE 9.0 mph /  14.5 km/h 13.8 mph /  22.2 km/h 31 % 0.00 in /  0 mm
19:11 30.1 °F /  -1.1 °C 1.6 °F /  -16.9 °C 30.50 in /  1032.7 hPa NNW 5.1 mph /  8.2 km/h 8.0 mph /  12.9 km/h 29 % 0.00 in /  0 mm
19:17 30.0 °F /  -1.1 °C 3.0 °F /  -16.1 °C 30.50 in /  1032.7 hPa North 5.6 mph /  9 km/h 15.0 mph /  24.1 km/h 31 % 0.00 in /  0 mm
19:22 30.0 °F /  -1.1 °C 3.7 °F /  -15.7 °C 30.51 in /  1033.1 hPa NNE 5.7 mph /  9.2 km/h 9.2 mph /  14.8 km/h 32 % 0.00 in /  0 mm
19:27 30.0 °F /  -1.1 °C 3.7 °F /  -15.7 °C 30.51 in /  1033.1 hPa NNW 7.5 mph /  12.1 km/h 11.5 mph /  18.5 km/h 32 % 0.00 in /  0 mm
19:32 29.9 °F /  -1.2 °C 2.9 °F /  -16.2 °C 30.51 in /  1033.1 hPa North 4.1 mph /  6.6 km/h 11.5 mph /  18.5 km/h 31 % 0.00 in /  0 mm
19:37 29.9 °F /  -1.2 °C 2.9 °F /  -16.2 °C 30.51 in /  1033.1 hPa North 8.0 mph /  12.9 km/h 12.7 mph /  20.4 km/h 31 % 0.00 in /  0 mm
19:42 29.8 °F /  -1.2 °C 3.5 °F /  -15.8 °C 30.50 in /  1032.7 hPa North 8.2 mph /  13.2 km/h 15.0 mph /  24.1 km/h 32 % 0.00 in /  0 mm
19:47 29.8 °F /  -1.2 °C 2.8 °F /  -16.2 °C 30.50 in /  1032.7 hPa North 8.0 mph /  12.9 km/h 10.4 mph /  16.7 km/h 31 % 0.00 in /  0 mm
19:48 29.8 °F /  -1.2 °C 2.8 °F /  -16.2 °C 30.50 in /  1032.7 hPa North 7.7 mph /  12.4 km/h 11.5 mph /  18.5 km/h 31 % 0.00 in /  0 mm
19:53 29.8 °F /  -1.2 °C 3.5 °F /  -15.8 °C 30.50 in /  1032.7 hPa NNW 10.0 mph /  16.1 km/h 15.0 mph /  24.1 km/h 32 % 0.00 in /  0 mm
19:58 29.8 °F /  -1.2 °C 3.5 °F /  -15.8 °C 30.50 in /  1032.7 hPa North 7.7 mph /  12.4 km/h 11.0 mph /  17.7 km/h 32 % 0.00 in /  0 mm
20:03 29.8 °F /  -1.2 °C 4.1 °F /  -15.5 °C 30.50 in /  1032.7 hPa NNE 8.0 mph /  12.9 km/h 11.5 mph /  18.5 km/h 33 % 0.00 in /  0 mm
20:08 29.8 °F /  -1.2 °C 4.8 °F /  -15.1 °C 30.50 in /  1032.7 hPa NNE 7.0 mph /  11.3 km/h 12.0 mph /  19.3 km/h 34 % 0.00 in /  0 mm
20:13 29.8 °F /  -1.2 °C 5.4 °F /  -14.8 °C 30.50 in /  1032.7 hPa NNE 8.0 mph /  12.9 km/h 12.0 mph /  19.3 km/h 35 % 0.00 in /  0 mm
20:18 29.7 °F /  -1.3 °C 4.1 °F /  -15.5 °C 30.50 in /  1032.7 hPa NNE 9.0 mph /  14.5 km/h 13.0 mph /  20.9 km/h 33 % 0.00 in /  0 mm
20:23 29.7 °F /  -1.3 °C 5.3 °F /  -14.8 °C 30.50 in /  1032.7 hPa NNE 5.0 mph /  8 km/h 12.0 mph /  19.3 km/h 35 % 0.00 in /  0 mm
20:28 29.7 °F /  -1.3 °C 6.0 °F /  -14.4 °C 30.50 in /  1032.7 hPa NNE 6.0 mph /  9.7 km/h 9.0 mph /  14.5 km/h 36 % 0.00 in /  0 mm
20:33 29.6 °F /  -1.3 °C 5.3 °F /  -14.8 °C 30.50 in /  1032.7 hPa NNE 5.0 mph /  8 km/h 10.0 mph /  16.1 km/h 35 % 0.00 in /  0 mm
20:38 29.5 °F /  -1.4 °C 5.8 °F /  -14.6 °C 30.50 in /  1032.7 hPa NNE 6.5 mph /  10.5 km/h 11.5 mph /  18.5 km/h 36 % 0.00 in /  0 mm
20:43 29.5 °F /  -1.4 °C 6.4 °F /  -14.2 °C 30.50 in /  1032.7 hPa NNE 7.0 mph /  11.3 km/h 12.0 mph /  19.3 km/h 37 % 0.00 in /  0 mm
20:48 29.4 °F /  -1.4 °C 6.9 °F /  -13.9 °C 30.50 in /  1032.7 hPa NNE 3.0 mph /  4.8 km/h 8.0 mph /  12.9 km/h 38 % 0.00 in /  0 mm
20:53 29.4 °F /  -1.4 °C 5.7 °F /  -14.6 °C 30.51 in /  1033.1 hPa NNE 6.0 mph /  9.7 km/h 12.0 mph /  19.3 km/h 36 % 0.00 in /  0 mm
20:58 29.3 °F /  -1.5 °C 6.2 °F /  -14.3 °C 30.50 in /  1032.7 hPa NNE 5.9 mph /  9.5 km/h 10.4 mph /  16.7 km/h 37 % 0.00 in /  0 mm
21:03 29.3 °F /  -1.5 °C 6.2 °F /  -14.3 °C 30.51 in /  1033.1 hPa NNE 4.2 mph /  6.8 km/h 9.2 mph /  14.8 km/h 37 % 0.00 in /  0 mm
21:08 29.2 °F /  -1.6 °C 6.1 °F /  -14.4 °C 30.51 in /  1033.1 hPa NNW 3.8 mph /  6.1 km/h 6.9 mph /  11.1 km/h 37 % 0.00 in /  0 mm
21:13 29.1 °F /  -1.6 °C 6.0 °F /  -14.4 °C 30.51 in /  1033.1 hPa NE 3.9 mph /  6.3 km/h 5.8 mph /  9.3 km/h 37 % 0.00 in /  0 mm
21:18 29.1 °F /  -1.6 °C 7.2 °F /  -13.8 °C 30.51 in /  1033.1 hPa NNW 4.9 mph /  7.9 km/h 10.0 mph /  16.1 km/h 39 % 0.00 in /  0 mm
21:23 29.0 °F /  -1.7 °C 6.5 °F /  -14.2 °C 30.51 in /  1033.1 hPa NNE 4.7 mph /  7.6 km/h 8.1 mph /  13 km/h 38 % 0.00 in /  0 mm
21:29 29.0 °F /  -1.7 °C 7.1 °F /  -13.8 °C 30.51 in /  1033.1 hPa North 1.2 mph /  1.9 km/h 3.5 mph /  5.6 km/h 39 % 0.00 in /  0 mm
21:34 28.9 °F /  -1.7 °C 7.0 °F /  -13.9 °C 30.51 in /  1033.1 hPa North 4.6 mph /  7.4 km/h 6.9 mph /  11.1 km/h 39 % 0.00 in /  0 mm
21:39 28.8 °F /  -1.8 °C 6.9 °F /  -13.9 °C 30.51 in /  1033.1 hPa North 3.9 mph /  6.3 km/h 7.0 mph /  11.3 km/h 39 % 0.00 in /  0 mm
21:44 28.8 °F /  -1.8 °C 6.9 °F /  -13.9 °C 30.51 in /  1033.1 hPa NNE 4.5 mph /  7.2 km/h 5.8 mph /  9.3 km/h 39 % 0.00 in /  0 mm
21:49 28.8 °F /  -1.8 °C 6.9 °F /  -13.9 °C 30.51 in /  1033.1 hPa North 3.5 mph /  5.6 km/h 7.0 mph /  11.3 km/h 39 % 0.00 in /  0 mm
21:54 28.7 °F /  -1.8 °C 6.8 °F /  -14 °C 30.51 in /  1033.1 hPa NNW 3.9 mph /  6.3 km/h 5.8 mph /  9.3 km/h 39 % 0.00 in /  0 mm
21:59 28.7 °F /  -1.8 °C 6.8 °F /  -14 °C 30.51 in /  1033.1 hPa NNW 3.4 mph /  5.5 km/h 5.8 mph /  9.3 km/h 39 % 0.00 in /  0 mm
22:04 28.7 °F /  -1.8 °C 6.8 °F /  -14 °C 30.51 in /  1033.1 hPa NNE 4.0 mph /  6.4 km/h 6.9 mph /  11.1 km/h 39 % 0.00 in /  0 mm
22:09 28.7 °F /  -1.8 °C 7.4 °F /  -13.7 °C 30.51 in /  1033.1 hPa NW 2.3 mph /  3.7 km/h 7.0 mph /  11.3 km/h 40 % 0.00 in /  0 mm
22:14 28.7 °F /  -1.8 °C 7.4 °F /  -13.7 °C 30.51 in /  1033.1 hPa NNE 3.2 mph /  5.1 km/h 6.9 mph /  11.1 km/h 40 % 0.00 in /  0 mm
22:19 28.7 °F /  -1.8 °C 7.4 °F /  -13.7 °C 30.51 in /  1033.1 hPa NNE 4.0 mph /  6.4 km/h 4.0 mph /  6.4 km/h 40 % 0.00 in /  0 mm
22:24 28.7 °F /  -1.8 °C 6.8 °F /  -14 °C 30.51 in /  1033.1 hPa NNW 3.0 mph /  4.8 km/h 5.8 mph /  9.3 km/h 39 % 0.00 in /  0 mm
22:29 28.7 °F /  -1.8 °C 5.7 °F /  -14.6 °C 30.51 in /  1033.1 hPa North 1.2 mph /  1.9 km/h 4.6 mph /  7.4 km/h 37 % 0.00 in /  0 mm
22:35 28.7 °F /  -1.8 °C 7.4 °F /  -13.7 °C 30.51 in /  1033.1 hPa North 0.2 mph /  0.3 km/h 3.5 mph /  5.6 km/h 40 % 0.00 in /  0 mm
22:40 28.7 °F /  -1.8 °C 7.4 °F /  -13.7 °C 30.51 in /  1033.1 hPa North 1.8 mph /  2.9 km/h 5.8 mph /  9.3 km/h 40 % 0.00 in /  0 mm
22:45 28.7 °F /  -1.8 °C 6.8 °F /  -14 °C 30.50 in /  1032.7 hPa North 3.1 mph /  5 km/h 5.8 mph /  9.3 km/h 39 % 0.00 in /  0 mm
22:50 28.6 °F /  -1.9 °C 6.7 °F /  -14.1 °C 30.50 in /  1032.7 hPa NNW 4.9 mph /  7.9 km/h 8.1 mph /  13 km/h 39 % 0.00 in /  0 mm
22:55 28.7 °F /  -1.8 °C 7.4 °F /  -13.7 °C 30.50 in /  1032.7 hPa NNW 1.2 mph /  1.9 km/h 3.5 mph /  5.6 km/h 40 % 0.00 in /  0 mm
23:00 28.6 °F /  -1.9 °C 7.3 °F /  -13.7 °C 30.50 in /  1032.7 hPa NNE 4.4 mph /  7.1 km/h 8.0 mph /  12.9 km/h 40 % 0.00 in /  0 mm
23:05 28.6 °F /  -1.9 °C 7.3 °F /  -13.7 °C 30.50 in /  1032.7 hPa North 0.7 mph /  1.1 km/h 5.8 mph /  9.3 km/h 40 % 0.00 in /  0 mm
23:10 28.5 °F /  -1.9 °C 7.8 °F /  -13.4 °C 30.50 in /  1032.7 hPa North 3.1 mph /  5 km/h 4.6 mph /  7.4 km/h 41 % 0.00 in /  0 mm
23:15 28.5 °F /  -1.9 °C 7.2 °F /  -13.8 °C 30.51 in /  1033.1 hPa North 3.9 mph /  6.3 km/h 8.1 mph /  13 km/h 40 % 0.00 in /  0 mm
23:20 28.5 °F /  -1.9 °C 8.3 °F /  -13.2 °C 30.51 in /  1033.1 hPa NW 2.4 mph /  3.9 km/h 4.6 mph /  7.4 km/h 42 % 0.00 in /  0 mm
23:25 28.5 °F /  -1.9 °C 8.3 °F /  -13.2 °C 30.50 in /  1032.7 hPa North 4.0 mph /  6.4 km/h 6.9 mph /  11.1 km/h 42 % 0.00 in /  0 mm
23:30 28.5 °F /  -1.9 °C 7.8 °F /  -13.4 °C 30.50 in /  1032.7 hPa North 4.0 mph /  6.4 km/h 9.2 mph /  14.8 km/h 41 % 0.00 in /  0 mm
23:35 28.5 °F /  -1.9 °C 8.3 °F /  -13.2 °C 30.50 in /  1032.7 hPa North 4.2 mph /  6.8 km/h 5.8 mph /  9.3 km/h 42 % 0.00 in /  0 mm
23:40 28.5 °F /  -1.9 °C 7.8 °F /  -13.4 °C 30.51 in /  1033.1 hPa North 1.7 mph /  2.7 km/h 4.6 mph /  7.4 km/h 41 % 0.00 in /  0 mm
23:46 28.4 °F /  -2 °C 8.2 °F /  -13.2 °C 30.51 in /  1033.1 hPa NW 1.2 mph /  1.9 km/h 6.9 mph /  11.1 km/h 42 % 0.00 in /  0 mm
23:51 28.4 °F /  -2 °C 7.7 °F /  -13.5 °C 30.50 in /  1032.7 hPa NNW 2.5 mph /  4 km/h 4.6 mph /  7.4 km/h 41 % 0.00 in /  0 mm
23:52 28.3 °F /  -2.1 °C 8.1 °F /  -13.3 °C 30.51 in /  1033.1 hPa NNW 1.1 mph /  1.8 km/h 3.5 mph /  5.6 km/h 42 % 0.00 in /  0 mm
23:57 28.3 °F /  -2.1 °C 8.1 °F /  -13.3 °C 30.51 in /  1033.1 hPa NW 1.6 mph /  2.6 km/h 3.5 mph /  5.6 km/h 42 % 0.00 in /  0 mm
Crab Meadow Weather
Compliments of Weather Underground - 3 mb

Script developed by  Jim McMurry - jmcmurry@mwt.net Adapted for the template by  Wim van der Kuil - Leuven-Template.eu

Astronomy: The light of the Sun takes 8 minutes to reach Earth.